Aviation Digital Data Service (ADDS)

Output produced by TAFs form (1124 UTC 17 July 2018)
found at http://www.aviationweather.gov/adds/tafs/
 
KBNA 171053Z 00000KT 10SM BKN060 BKN180 BKN250 24/23 A3000 RMK AO2 SLP150 T02440228
KBNA 171121Z 1712/1812 23004KT P6SM SCT040 BKN150 
     FM171800 34007KT P6SM VCTS BKN040CB 
     FM172300 01007KT P6SM SCT250